sensor_id;sensor_type;location;lat;lon;timestamp;pressure;altitude;pressure_sealevel;temperature;humidity
60258;BME280;46115;44.484;11.314;2023-05-10T00:03:33;99927.78;;;15.78;95.60
60258;BME280;46115;44.484;11.314;2023-05-10T00:07:35;99907.53;;;15.42;98.02
60258;BME280;46115;44.484;11.314;2023-05-10T00:11:38;99920.41;;;15.82;95.23
60258;BME280;46115;44.484;11.314;2023-05-10T00:15:41;99907.66;;;15.41;98.48
60258;BME280;46115;44.484;11.314;2023-05-10T00:19:44;99912.53;;;15.58;98.89
60258;BME280;46115;44.484;11.314;2023-05-10T00:23:46;99899.78;;;15.50;99.63
60258;BME280;46115;44.484;11.314;2023-05-10T00:27:48;99893.91;;;15.69;98.34
60258;BME280;46115;44.484;11.314;2023-05-10T00:31:52;99891.31;;;15.45;100.00
60258;BME280;46115;44.484;11.314;2023-05-10T00:35:55;99882.94;;;15.50;99.70
60258;BME280;46115;44.484;11.314;2023-05-10T00:39:57;99887.53;;;15.48;100.00
60258;BME280;46115;44.484;11.314;2023-05-10T00:43:59;99877.34;;;15.19;100.00
60258;BME280;46115;44.484;11.314;2023-05-10T00:48:05;99850.13;;;15.16;100.00
60258;BME280;46115;44.484;11.314;2023-05-10T00:52:08;99865.28;;;15.26;100.00
60258;BME280;46115;44.484;11.314;2023-05-10T00:56:10;99859.47;;;15.33;100.00
60258;BME280;46115;44.484;11.314;2023-05-10T01:00:14;99861.13;;;15.22;100.00
60258;BME280;46115;44.484;11.314;2023-05-10T01:04:20;99865.75;;;15.43;100.00
60258;BME280;46115;44.484;11.314;2023-05-10T01:08:26;99857.03;;;15.29;100.00
60258;BME280;46115;44.484;11.314;2023-05-10T01:12:30;99861.16;;;15.34;100.00
60258;BME280;46115;44.484;11.314;2023-05-10T01:16:36;99861.25;;;15.21;100.00
60258;BME280;46115;44.484;11.314;2023-05-10T01:20:43;99856.53;;;15.02;100.00
60258;BME280;46115;44.484;11.314;2023-05-10T01:34:16;99852.66;;;15.06;100.00
60258;BME280;46115;44.484;11.314;2023-05-10T01:38:24;99848.03;;;14.97;100.00
60258;BME280;46115;44.484;11.314;2023-05-10T01:42:35;99848.09;;;15.31;100.00
60258;BME280;46115;44.484;11.314;2023-05-10T01:46:40;99848.44;;;15.48;100.00
60258;BME280;46115;44.484;11.314;2023-05-10T01:50:45;99856.56;;;15.36;100.00
60258;BME280;46115;44.484;11.314;2023-05-10T01:54:51;99854.72;;;15.25;100.00
60258;BME280;46115;44.484;11.314;2023-05-10T01:58:56;99856.66;;;15.23;100.00
60258;BME280;46115;44.484;11.314;2023-05-10T02:03:05;99849.53;;;15.35;100.00
60258;BME280;46115;44.484;11.314;2023-05-10T02:07:10;99852.44;;;15.43;100.00
60258;BME280;46115;44.484;11.314;2023-05-10T02:11:14;99850.63;;;15.43;100.00
60258;BME280;46115;44.484;11.314;2023-05-10T02:15:19;99844.22;;;15.35;100.00
60258;BME280;46115;44.484;11.314;2023-05-10T02:19:23;99851.44;;;15.21;100.00
60258;BME280;46115;44.484;11.314;2023-05-10T02:23:28;99855.31;;;15.06;100.00
60258;BME280;46115;44.484;11.314;2023-05-10T02:27:31;99854.47;;;15.17;100.00
60258;BME280;46115;44.484;11.314;2023-05-10T02:31:34;99859.34;;;15.34;100.00
60258;BME280;46115;44.484;11.314;2023-05-10T02:35:40;99853.56;;;15.63;100.00
60258;BME280;46115;44.484;11.314;2023-05-10T02:39:46;99856.06;;;15.53;100.00
60258;BME280;46115;44.484;11.314;2023-05-10T02:43:50;99854.97;;;15.55;100.00
60258;BME280;46115;44.484;11.314;2023-05-10T02:47:52;99838.94;;;14.88;100.00
60258;BME280;46115;44.484;11.314;2023-05-10T02:52:00;99843.22;;;15.02;100.00
60258;BME280;46115;44.484;11.314;2023-05-10T02:56:11;99850.41;;;14.78;100.00
60258;BME280;46115;44.484;11.314;2023-05-10T03:00:15;99851.72;;;14.72;100.00
60258;BME280;46115;44.484;11.314;2023-05-10T03:04:18;99853.25;;;14.98;100.00
60258;BME280;46115;44.484;11.314;2023-05-10T03:08:21;99844.13;;;14.90;100.00
60258;BME280;46115;44.484;11.314;2023-05-10T03:12:33;99841.28;;;15.15;100.00
60258;BME280;46115;44.484;11.314;2023-05-10T03:16:43;99808.78;;;14.65;100.00
60258;BME280;46115;44.484;11.314;2023-05-10T03:20:50;99843.44;;;14.99;100.00
60258;BME280;46115;44.484;11.314;2023-05-10T03:24:55;99826.06;;;14.60;100.00
60258;BME280;46115;44.484;11.314;2023-05-10T03:29:02;99841.50;;;15.01;100.00
60258;BME280;46115;44.484;11.314;2023-05-10T03:33:06;99847.44;;;14.93;100.00
60258;BME280;46115;44.484;11.314;2023-05-10T03:37:12;99816.38;;;14.35;100.00
60258;BME280;46115;44.484;11.314;2023-05-10T03:41:15;99842.16;;;14.70;100.00
60258;BME280;46115;44.484;11.314;2023-05-10T03:45:19;99852.81;;;14.81;100.00
60258;BME280;46115;44.484;11.314;2023-05-10T03:49:21;99837.69;;;14.70;100.00
60258;BME280;46115;44.484;11.314;2023-05-10T03:53:24;99797.66;;;14.36;100.00
60258;BME280;46115;44.484;11.314;2023-05-10T03:57:27;99844.53;;;14.38;100.00
60258;BME280;46115;44.484;11.314;2023-05-10T04:01:31;99843.84;;;14.71;100.00
60258;BME280;46115;44.484;11.314;2023-05-10T04:05:34;99844.47;;;14.74;100.00
60258;BME280;46115;44.484;11.314;2023-05-10T04:09:36;99841.59;;;14.53;100.00
60258;BME280;46115;44.484;11.314;2023-05-10T04:13:38;99862.63;;;14.45;100.00
60258;BME280;46115;44.484;11.314;2023-05-10T04:17:42;99847.50;;;13.85;100.00
60258;BME280;46115;44.484;11.314;2023-05-10T04:21:44;99846.06;;;14.53;100.00
60258;BME280;46115;44.484;11.314;2023-05-10T04:25:47;99838.00;;;14.30;100.00
60258;BME280;46115;44.484;11.314;2023-05-10T04:29:49;99840.75;;;14.05;100.00
60258;BME280;46115;44.484;11.314;2023-05-10T04:33:53;99839.91;;;14.52;100.00
60258;BME280;46115;44.484;11.314;2023-05-10T04:37:55;99845.63;;;14.35;100.00
60258;BME280;46115;44.484;11.314;2023-05-10T04:41:58;99840.69;;;14.65;100.00
60258;BME280;46115;44.484;11.314;2023-05-10T04:46:00;99806.31;;;14.51;100.00
60258;BME280;46115;44.484;11.314;2023-05-10T04:50:05;99835.06;;;14.46;100.00
60258;BME280;46115;44.484;11.314;2023-05-10T04:54:08;99826.16;;;14.34;100.00
60258;BME280;46115;44.484;11.314;2023-05-10T04:58:11;99836.88;;;14.46;100.00
60258;BME280;46115;44.484;11.314;2023-05-10T05:02:13;99831.66;;;14.44;100.00
60258;BME280;46115;44.484;11.314;2023-05-10T05:06:17;99839.53;;;14.46;100.00
60258;BME280;46115;44.484;11.314;2023-05-10T05:10:19;99833.28;;;14.34;100.00
60258;BME280;46115;44.484;11.314;2023-05-10T05:14:22;99835.38;;;14.42;100.00
60258;BME280;46115;44.484;11.314;2023-05-10T05:18:26;99830.88;;;14.31;100.00
60258;BME280;46115;44.484;11.314;2023-05-10T05:22:29;99837.88;;;14.32;100.00
60258;BME280;46115;44.484;11.314;2023-05-10T05:26:32;99827.50;;;14.40;100.00
60258;BME280;46115;44.484;11.314;2023-05-10T05:30:34;99818.56;;;14.17;100.00
60258;BME280;46115;44.484;11.314;2023-05-10T05:34:36;99833.97;;;14.01;100.00
60258;BME280;46115;44.484;11.314;2023-05-10T05:38:40;99833.00;;;14.02;100.00
60258;BME280;46115;44.484;11.314;2023-05-10T05:42:42;99835.94;;;14.10;100.00
60258;BME280;46115;44.484;11.314;2023-05-10T05:46:45;99832.38;;;13.98;100.00
60258;BME280;46115;44.484;11.314;2023-05-10T05:50:47;99826.63;;;14.04;100.00
60258;BME280;46115;44.484;11.314;2023-05-10T05:54:51;99838.56;;;14.47;100.00
60258;BME280;46115;44.484;11.314;2023-05-10T05:58:53;99832.72;;;14.42;100.00
60258;BME280;46115;44.484;11.314;2023-05-10T06:02:55;99834.88;;;14.36;100.00
60258;BME280;46115;44.484;11.314;2023-05-10T06:06:58;99834.53;;;14.17;100.00
60258;BME280;46115;44.484;11.314;2023-05-10T06:11:02;99836.66;;;14.25;100.00
60258;BME280;46115;44.484;11.314;2023-05-10T06:15:06;99835.16;;;13.97;100.00
60258;BME280;46115;44.484;11.314;2023-05-10T06:19:08;99823.97;;;14.28;100.00
60258;BME280;46115;44.484;11.314;2023-05-10T06:23:10;99838.59;;;14.34;100.00
60258;BME280;46115;44.484;11.314;2023-05-10T06:27:14;99841.38;;;14.32;100.00
60258;BME280;46115;44.484;11.314;2023-05-10T06:31:17;99841.38;;;14.32;100.00
60258;BME280;46115;44.484;11.314;2023-05-10T06:35:20;99839.63;;;14.20;100.00
60258;BME280;46115;44.484;11.314;2023-05-10T06:39:23;99823.09;;;14.52;100.00
60258;BME280;46115;44.484;11.314;2023-05-10T06:43:26;99836.66;;;14.25;100.00
60258;BME280;46115;44.484;11.314;2023-05-10T06:47:29;99835.78;;;14.24;100.00
60258;BME280;46115;44.484;11.314;2023-05-10T06:51:32;99818.53;;;14.30;100.00
60258;BME280;46115;44.484;11.314;2023-05-10T06:55:35;99814.56;;;14.12;100.00
60258;BME280;46115;44.484;11.314;2023-05-10T06:59:39;99829.56;;;14.36;100.00
60258;BME280;46115;44.484;11.314;2023-05-10T07:03:41;99834.38;;;14.31;100.00
60258;BME280;46115;44.484;11.314;2023-05-10T07:07:43;99834.25;;;14.33;100.00
60258;BME280;46115;44.484;11.314;2023-05-10T07:11:46;99817.19;;;14.24;100.00
60258;BME280;46115;44.484;11.314;2023-05-10T07:15:50;99828.72;;;14.36;100.00
60258;BME280;46115;44.484;11.314;2023-05-10T07:19:52;99809.41;;;14.21;100.00
60258;BME280;46115;44.484;11.314;2023-05-10T07:23:54;99824.66;;;14.43;100.00
60258;BME280;46115;44.484;11.314;2023-05-10T07:27:57;99830.13;;;14.29;100.00
60258;BME280;46115;44.484;11.314;2023-05-10T07:32:00;99830.97;;;14.53;100.00
60258;BME280;46115;44.484;11.314;2023-05-10T07:36:03;99822.50;;;14.24;100.00
60258;BME280;46115;44.484;11.314;2023-05-10T07:40:07;99831.47;;;14.34;100.00
60258;BME280;46115;44.484;11.314;2023-05-10T07:44:09;99831.09;;;14.28;100.00
60258;BME280;46115;44.484;11.314;2023-05-10T07:48:13;99828.59;;;14.14;100.00
60258;BME280;46115;44.484;11.314;2023-05-10T07:52:16;99790.09;;;13.95;100.00
60258;BME280;46115;44.484;11.314;2023-05-10T07:56:23;99827.47;;;14.05;100.00
60258;BME280;46115;44.484;11.314;2023-05-10T08:00:28;99830.91;;;13.94;100.00
60258;BME280;46115;44.484;11.314;2023-05-10T08:04:31;99829.81;;;14.21;100.00
60258;BME280;46115;44.484;11.314;2023-05-10T08:08:34;99826.13;;;13.99;100.00
60258;BME280;46115;44.484;11.314;2023-05-10T08:12:36;99833.56;;;13.94;100.00
60258;BME280;46115;44.484;11.314;2023-05-10T08:16:39;99827.09;;;13.86;100.00
60258;BME280;46115;44.484;11.314;2023-05-10T08:20:43;99832.91;;;14.03;100.00
60258;BME280;46115;44.484;11.314;2023-05-10T08:24:46;99837.59;;;14.00;100.00
60258;BME280;46115;44.484;11.314;2023-05-10T08:28:48;99845.28;;;13.92;100.00
60258;BME280;46115;44.484;11.314;2023-05-10T08:32:51;99843.03;;;13.86;100.00
60258;BME280;46115;44.484;11.314;2023-05-10T08:36:54;99860.16;;;13.94;100.00
60258;BME280;46115;44.484;11.314;2023-05-10T08:40:57;99829.16;;;14.06;100.00
60258;BME280;46115;44.484;11.314;2023-05-10T08:45:02;99853.34;;;14.14;100.00
60258;BME280;46115;44.484;11.314;2023-05-10T08:49:06;99806.22;;;13.68;100.00
60258;BME280;46115;44.484;11.314;2023-05-10T08:53:12;99854.50;;;13.99;100.00
60258;BME280;46115;44.484;11.314;2023-05-10T08:57:14;99851.84;;;13.99;100.00
60258;BME280;46115;44.484;11.314;2023-05-10T09:01:18;99853.34;;;14.14;100.00
60258;BME280;46115;44.484;11.314;2023-05-10T09:05:20;99846.75;;;13.96;100.00
60258;BME280;46115;44.484;11.314;2023-05-10T09:09:25;99858.50;;;14.04;100.00
60258;BME280;46115;44.484;11.314;2023-05-10T09:13:28;99831.47;;;14.11;100.00
60258;BME280;46115;44.484;11.314;2023-05-10T09:17:31;99845.78;;;13.97;100.00
60258;BME280;46115;44.484;11.314;2023-05-10T09:21:35;99848.13;;;14.25;100.00
60258;BME280;46115;44.484;11.314;2023-05-10T09:25:41;99846.56;;;14.10;100.00
60258;BME280;46115;44.484;11.314;2023-05-10T09:29:43;99847.38;;;13.99;100.00
60258;BME280;46115;44.484;11.314;2023-05-10T09:33:46;99850.38;;;13.95;100.00
60258;BME280;46115;44.484;11.314;2023-05-10T09:37:51;99850.06;;;14.11;100.00
60258;BME280;46115;44.484;11.314;2023-05-10T09:41:56;99840.03;;;14.27;100.00
60258;BME280;46115;44.484;11.314;2023-05-10T09:45:58;99840.66;;;14.30;100.00
60258;BME280;46115;44.484;11.314;2023-05-10T09:50:02;99838.78;;;14.44;100.00
60258;BME280;46115;44.484;11.314;2023-05-10T09:54:09;99845.22;;;14.52;100.00
60258;BME280;46115;44.484;11.314;2023-05-10T09:58:14;99845.69;;;14.46;100.00
60258;BME280;46115;44.484;11.314;2023-05-10T10:02:16;99850.59;;;14.16;100.00
60258;BME280;46115;44.484;11.314;2023-05-10T10:06:19;99839.34;;;14.36;100.00
60258;BME280;46115;44.484;11.314;2023-05-10T10:10:22;99845.00;;;14.08;100.00
60258;BME280;46115;44.484;11.314;2023-05-10T10:14:26;99857.44;;;14.31;100.00
60258;BME280;46115;44.484;11.314;2023-05-10T10:18:29;99847.13;;;14.02;100.00
60258;BME280;46115;44.484;11.314;2023-05-10T10:22:32;99857.78;;;14.26;100.00
60258;BME280;46115;44.484;11.314;2023-05-10T10:26:35;99858.50;;;14.04;100.00
60258;BME280;46115;44.484;11.314;2023-05-10T10:30:42;99851.28;;;14.07;100.00
60258;BME280;46115;44.484;11.314;2023-05-10T10:34:45;99811.88;;;14.00;100.00
60258;BME280;46115;44.484;11.314;2023-05-10T10:38:57;99856.41;;;14.57;100.00
60258;BME280;46115;44.484;11.314;2023-05-10T10:43:23;99863.09;;;14.74;100.00
60258;BME280;46115;44.484;11.314;2023-05-10T10:47:28;99861.75;;;14.69;100.00
60258;BME280;46115;44.484;11.314;2023-05-10T10:51:36;99860.31;;;14.76;100.00
60258;BME280;46115;44.484;11.314;2023-05-10T10:55:46;99852.88;;;14.92;100.00
60258;BME280;46115;44.484;11.314;2023-05-10T10:59:49;99871.56;;;14.79;100.00
60258;BME280;46115;44.484;11.314;2023-05-10T11:04:20;99865.72;;;14.98;100.00
60258;BME280;46115;44.484;11.314;2023-05-10T11:08:26;99868.66;;;14.82;100.00
60258;BME280;46115;44.484;11.314;2023-05-10T11:12:29;99877.25;;;14.86;100.00
60258;BME280;46115;44.484;11.314;2023-05-10T11:16:41;99886.75;;;15.01;100.00
60258;BME280;46115;44.484;11.314;2023-05-10T11:20:50;99890.50;;;14.63;100.00
60258;BME280;46115;44.484;11.314;2023-05-10T11:25:01;99893.66;;;14.69;100.00
60258;BME280;46115;44.484;11.314;2023-05-10T11:29:04;99893.81;;;14.78;100.00
60258;BME280;46115;44.484;11.314;2023-05-10T11:33:07;99901.41;;;14.72;100.00
60258;BME280;46115;44.484;11.314;2023-05-10T11:37:11;99902.47;;;14.58;100.00
60258;BME280;46115;44.484;11.314;2023-05-10T11:41:18;99905.34;;;14.42;100.00
60258;BME280;46115;44.484;11.314;2023-05-10T11:45:23;99902.38;;;14.47;100.00
60258;BME280;46115;44.484;11.314;2023-05-10T11:49:26;99895.09;;;14.61;100.00
60258;BME280;46115;44.484;11.314;2023-05-10T11:53:32;99898.19;;;14.79;100.00
60258;BME280;46115;44.484;11.314;2023-05-10T11:57:35;99897.50;;;14.41;100.00
60258;BME280;46115;44.484;11.314;2023-05-10T12:01:39;99905.91;;;14.82;100.00
60258;BME280;46115;44.484;11.314;2023-05-10T12:05:41;99911.97;;;14.36;100.00
60258;BME280;46115;44.484;11.314;2023-05-10T12:10:02;99867.50;;;14.15;100.00
60258;BME280;46115;44.484;11.314;2023-05-10T12:14:05;99892.56;;;14.23;100.00
60258;BME280;46115;44.484;11.314;2023-05-10T12:18:08;99903.84;;;14.27;100.00
60258;BME280;46115;44.484;11.314;2023-05-10T12:22:11;99906.06;;;14.20;100.00
60258;BME280;46115;44.484;11.314;2023-05-10T12:26:15;99908.31;;;14.26;100.00
60258;BME280;46115;44.484;11.314;2023-05-10T12:30:21;99901.31;;;14.49;100.00
60258;BME280;46115;44.484;11.314;2023-05-10T12:34:25;99901.19;;;14.27;100.00
60258;BME280;46115;44.484;11.314;2023-05-10T12:38:29;99897.91;;;13.74;100.00
60258;BME280;46115;44.484;11.314;2023-05-10T12:42:35;99869.97;;;14.05;100.00
60258;BME280;46115;44.484;11.314;2023-05-10T12:46:38;99901.06;;;14.28;100.00
60258;BME280;46115;44.484;11.314;2023-05-10T12:50:40;99902.66;;;13.94;100.00
60258;BME280;46115;44.484;11.314;2023-05-10T12:54:42;99905.44;;;14.17;100.00
60258;BME280;46115;44.484;11.314;2023-05-10T12:58:46;99897.81;;;14.12;100.00
60258;BME280;46115;44.484;11.314;2023-05-10T13:02:49;99902.66;;;14.31;100.00
60258;BME280;46115;44.484;11.314;2023-05-10T13:06:51;99898.53;;;14.14;100.00
60258;BME280;46115;44.484;11.314;2023-05-10T13:10:54;99893.59;;;14.33;100.00
60258;BME280;46115;44.484;11.314;2023-05-10T13:14:57;99895.03;;;14.50;100.00
60258;BME280;46115;44.484;11.314;2023-05-10T13:19:00;99892.59;;;14.71;100.00
60258;BME280;46115;44.484;11.314;2023-05-10T13:23:02;99877.94;;;14.65;100.00
60258;BME280;46115;44.484;11.314;2023-05-10T13:27:05;99884.69;;;14.58;100.00
60258;BME280;46115;44.484;11.314;2023-05-10T13:31:08;99881.13;;;14.82;100.00
60258;BME280;46115;44.484;11.314;2023-05-10T13:35:11;99888.41;;;14.91;100.00
60258;BME280;46115;44.484;11.314;2023-05-10T13:39:13;99881.47;;;14.77;100.00
60258;BME280;46115;44.484;11.314;2023-05-10T13:43:16;99869.16;;;14.52;100.00
60258;BME280;46115;44.484;11.314;2023-05-10T13:47:19;99871.81;;;14.76;100.00
60258;BME280;46115;44.484;11.314;2023-05-10T13:51:22;99862.88;;;14.53;100.00
60258;BME280;46115;44.484;11.314;2023-05-10T13:55:25;99860.56;;;14.84;100.00
60258;BME280;46115;44.484;11.314;2023-05-10T13:59:28;99858.38;;;14.78;100.00
60258;BME280;46115;44.484;11.314;2023-05-10T14:03:33;99845.50;;;15.07;100.00
60258;BME280;46115;44.484;11.314;2023-05-10T14:07:36;99858.19;;;14.92;100.00
60258;BME280;46115;44.484;11.314;2023-05-10T14:11:38;99856.38;;;14.92;100.00
60258;BME280;46115;44.484;11.314;2023-05-10T14:15:45;99834.19;;;14.81;100.00
60258;BME280;46115;44.484;11.314;2023-05-10T14:19:49;99848.91;;;14.62;100.00
60258;BME280;46115;44.484;11.314;2023-05-10T14:23:51;99839.63;;;14.68;100.00
60258;BME280;46115;44.484;11.314;2023-05-10T14:27:53;99835.41;;;14.88;100.00
60258;BME280;46115;44.484;11.314;2023-05-10T14:31:56;99839.47;;;14.34;100.00
60258;BME280;46115;44.484;11.314;2023-05-10T14:36:01;99837.13;;;14.54;100.00
60258;BME280;46115;44.484;11.314;2023-05-10T14:40:06;99835.56;;;14.27;100.00
60258;BME280;46115;44.484;11.314;2023-05-10T14:44:08;99831.25;;;13.90;100.00
60258;BME280;46115;44.484;11.314;2023-05-10T14:48:11;99839.72;;;13.58;100.00
60258;BME280;46115;44.484;11.314;2023-05-10T14:52:17;99834.59;;;14.04;100.00
60258;BME280;46115;44.484;11.314;2023-05-10T14:56:20;99837.06;;;13.95;100.00
60258;BME280;46115;44.484;11.314;2023-05-10T15:00:23;99836.75;;;14.23;100.00
60258;BME280;46115;44.484;11.314;2023-05-10T15:04:25;99831.88;;;13.93;100.00
60258;BME280;46115;44.484;11.314;2023-05-10T15:08:29;99842.06;;;13.87;100.00
60258;BME280;46115;44.484;11.314;2023-05-10T15:12:32;99796.84;;;13.13;100.00
60258;BME280;46115;44.484;11.314;2023-05-10T15:16:34;99847.25;;;14.01;100.00
60258;BME280;46115;44.484;11.314;2023-05-10T15:20:37;99831.22;;;13.66;100.00
60258;BME280;46115;44.484;11.314;2023-05-10T15:24:40;99839.97;;;14.16;100.00
60258;BME280;46115;44.484;11.314;2023-05-10T15:28:43;99840.38;;;14.46;100.00
60258;BME280;46115;44.484;11.314;2023-05-10T15:32:45;99836.06;;;14.09;100.00
60258;BME280;46115;44.484;11.314;2023-05-10T15:36:48;99835.16;;;14.21;100.00
60258;BME280;46115;44.484;11.314;2023-05-10T15:40:56;99821.88;;;14.45;100.00
60258;BME280;46115;44.484;11.314;2023-05-10T15:44:58;99827.81;;;14.00;100.00
60258;BME280;46115;44.484;11.314;2023-05-10T15:49:01;99822.50;;;14.00;100.00
60258;BME280;46115;44.484;11.314;2023-05-10T15:53:03;99843.31;;;14.30;100.00
60258;BME280;46115;44.484;11.314;2023-05-10T15:57:07;99826.72;;;14.03;100.00
60258;BME280;46115;44.484;11.314;2023-05-10T16:01:09;99832.91;;;14.03;100.00
60258;BME280;46115;44.484;11.314;2023-05-10T16:05:13;99825.19;;;14.35;100.00
60258;BME280;46115;44.484;11.314;2023-05-10T16:09:15;99818.03;;;14.25;100.00
60258;BME280;46115;44.484;11.314;2023-05-10T16:13:19;99834.69;;;14.03;100.00
60258;BME280;46115;44.484;11.314;2023-05-10T16:17:21;99818.59;;;13.93;100.00
60258;BME280;46115;44.484;11.314;2023-05-10T16:21:24;99790.66;;;13.51;100.00
60258;BME280;46115;44.484;11.314;2023-05-10T16:25:26;99825.78;;;13.67;100.00
60258;BME280;46115;44.484;11.314;2023-05-10T16:29:30;99828.22;;;14.31;100.00
60258;BME280;46115;44.484;11.314;2023-05-10T16:33:32;99829.19;;;13.69;100.00
60258;BME280;46115;44.484;11.314;2023-05-10T16:37:35;99819.47;;;13.32;100.00
60258;BME280;46115;44.484;11.314;2023-05-10T16:41:37;99815.00;;;13.45;100.00
60258;BME280;46115;44.484;11.314;2023-05-10T16:45:41;99820.72;;;13.52;100.00
60258;BME280;46115;44.484;11.314;2023-05-10T16:49:43;99778.03;;;13.55;100.00
60258;BME280;46115;44.484;11.314;2023-05-10T16:53:46;99824.53;;;13.60;100.00
60258;BME280;46115;44.484;11.314;2023-05-10T16:57:48;99811.69;;;13.41;100.00
60258;BME280;46115;44.484;11.314;2023-05-10T17:01:52;99804.38;;;13.45;100.00
60258;BME280;46115;44.484;11.314;2023-05-10T17:05:54;99820.72;;;13.52;100.00
60258;BME280;46115;44.484;11.314;2023-05-10T17:09:58;99813.16;;;13.95;100.00
60258;BME280;46115;44.484;11.314;2023-05-10T17:14:01;99815.72;;;13.84;100.00
60258;BME280;46115;44.484;11.314;2023-05-10T17:18:05;99820.69;;;14.25;100.00
60258;BME280;46115;44.484;11.314;2023-05-10T17:22:08;99825.50;;;13.59;100.00
60258;BME280;46115;44.484;11.314;2023-05-10T17:26:10;99817.53;;;13.83;100.00
60258;BME280;46115;44.484;11.314;2023-05-10T17:30:13;99808.78;;;14.18;100.00
60258;BME280;46115;44.484;11.314;2023-05-10T17:34:17;99815.06;;;14.17;100.00
60258;BME280;46115;44.484;11.314;2023-05-10T17:38:19;99807.53;;;13.50;100.00
60258;BME280;46115;44.484;11.314;2023-05-10T17:42:22;99816.56;;;13.48;100.00
60258;BME280;46115;44.484;11.314;2023-05-10T17:46:24;99819.41;;;13.70;100.00
60258;BME280;46115;44.484;11.314;2023-05-10T17:50:28;99819.56;;;13.56;100.00
60258;BME280;46115;44.484;11.314;2023-05-10T17:54:31;99816.47;;;13.49;100.00
60258;BME280;46115;44.484;11.314;2023-05-10T17:58:34;99813.06;;;13.47;100.00
60258;BME280;46115;44.484;11.314;2023-05-10T18:02:38;99814.97;;;13.58;100.00
60258;BME280;46115;44.484;11.314;2023-05-10T18:06:42;99813.19;;;13.46;100.00
60258;BME280;46115;44.484;11.314;2023-05-10T18:10:44;99820.91;;;13.61;100.00
60258;BME280;46115;44.484;11.314;2023-05-10T18:14:46;99818.47;;;13.58;100.00
60258;BME280;46115;44.484;11.314;2023-05-10T18:18:49;99832.72;;;13.57;100.00
60258;BME280;46115;44.484;11.314;2023-05-10T18:22:53;99835.03;;;13.98;100.00
60258;BME280;46115;44.484;11.314;2023-05-10T18:26:56;99831.75;;;13.95;100.00
60258;BME280;46115;44.484;11.314;2023-05-10T18:30:59;99828.25;;;13.58;100.00
60258;BME280;46115;44.484;11.314;2023-05-10T18:35:01;99831.94;;;14.04;100.00
60258;BME280;46115;44.484;11.314;2023-05-10T18:39:05;99824.09;;;13.66;100.00
60258;BME280;46115;44.484;11.314;2023-05-10T18:43:08;99829.34;;;13.79;100.00
60258;BME280;46115;44.484;11.314;2023-05-10T18:47:10;99829.03;;;13.84;100.00
60258;BME280;46115;44.484;11.314;2023-05-10T18:51:13;99827.22;;;13.84;100.00
60258;BME280;46115;44.484;11.314;2023-05-10T18:55:17;99839.53;;;13.85;100.00
60258;BME280;46115;44.484;11.314;2023-05-10T18:59:19;99848.00;;;14.03;100.00
60258;BME280;46115;44.484;11.314;2023-05-10T19:03:21;99841.16;;;14.12;100.00
60258;BME280;46115;44.484;11.314;2023-05-10T19:07:24;99839.72;;;13.46;100.00
60258;BME280;46115;44.484;11.314;2023-05-10T19:11:28;99841.78;;;13.91;100.00
60258;BME280;46115;44.484;11.314;2023-05-10T19:15:32;99840.13;;;13.65;100.00
60258;BME280;46115;44.484;11.314;2023-05-10T22:06:08;99820.75;;;13.26;100.00
60258;BME280;46115;44.484;11.314;2023-05-10T22:10:10;99824.88;;;13.43;100.00
60258;BME280;46115;44.484;11.314;2023-05-10T22:14:13;99823.16;;;13.55;100.00
60258;BME280;46115;44.484;11.314;2023-05-10T22:18:15;99816.34;;;13.51;100.00
60258;BME280;46115;44.484;11.314;2023-05-10T22:22:19;99830.69;;;13.61;100.00
60258;BME280;46115;44.484;11.314;2023-05-10T22:26:22;99829.19;;;13.69;100.00
60258;BME280;46115;44.484;11.314;2023-05-10T22:30:24;99828.78;;;13.63;100.00
60258;BME280;46115;44.484;11.314;2023-05-10T22:34:27;99810.34;;;13.36;100.00
60258;BME280;46115;44.484;11.314;2023-05-10T22:38:30;99784.81;;;13.59;100.00
60258;BME280;46115;44.484;11.314;2023-05-10T22:42:33;99827.66;;;13.78;100.00
60258;BME280;46115;44.484;11.314;2023-05-10T22:46:35;99827.72;;;13.65;100.00
60258;BME280;46115;44.484;11.314;2023-05-10T22:50:38;99826.78;;;13.54;100.00
60258;BME280;46115;44.484;11.314;2023-05-10T22:54:41;99821.47;;;13.54;100.00
60258;BME280;46115;44.484;11.314;2023-05-10T22:58:44;99825.84;;;13.29;100.00
60258;BME280;46115;44.484;11.314;2023-05-10T23:02:46;99831.22;;;13.66;100.00
60258;BME280;46115;44.484;11.314;2023-05-10T23:06:49;99824.50;;;13.73;100.00
60258;BME280;46115;44.484;11.314;2023-05-10T23:10:52;99784.19;;;13.55;100.00
60258;BME280;46115;44.484;11.314;2023-05-10T23:14:55;99827.66;;;13.78;100.00
60258;BME280;46115;44.484;11.314;2023-05-10T23:18:57;99830.66;;;13.73;100.00
60258;BME280;46115;44.484;11.314;2023-05-10T23:22:59;99839.00;;;13.93;100.00
60258;BME280;46115;44.484;11.314;2023-05-10T23:27:03;99831.38;;;13.88;100.00
60258;BME280;46115;44.484;11.314;2023-05-10T23:31:05;99827.13;;;14.10;100.00
60258;BME280;46115;44.484;11.314;2023-05-10T23:35:08;99825.50;;;13.83;100.00
60258;BME280;46115;44.484;11.314;2023-05-10T23:39:10;99824.56;;;13.84;100.00
60258;BME280;46115;44.484;11.314;2023-05-10T23:43:14;99825.03;;;13.65;100.00
60258;BME280;46115;44.484;11.314;2023-05-10T23:47:17;99824.94;;;13.67;100.00
60258;BME280;46115;44.484;11.314;2023-05-10T23:51:20;99822.22;;;13.80;100.00
60258;BME280;46115;44.484;11.314;2023-05-10T23:55:22;99820.38;;;13.69;100.00